Aviation Digital Data Service (ADDS)

Output produced by METARs form (2111 UTC 06 December 2019)
found at http://www.aviationweather.gov/metar/data/
 
Forecast for: LEMD (MADRID/BARAJAS , ES)
Text: TAF LEMD 061700Z 0618/0724 VRB04KT 9999 SCT040 TX14/0715Z TN02/0706Z
Forecast period: 1800 UTC 06 December 2019 to 0000 UTC 08 December 2019
Forecast type: FROM: standard forecast or significant change
Winds: variable direction winds at 5 MPH (4 knots; 2.1 m/s)
Visibility: 6 or more miles 10+ km)
Ceiling: at least 12,000 feet AGL
Clouds: scattered clouds at 4000 feet AGL
Weather: no significant weather forecast for this period
Text: PROB40
Forecast period: 2000 UTC 07 December 2019 to 0000 UTC 08 December 2019
Forecast type: TEMPORARY: The following changes expected for less than half the time period
Visibility: 1.55 miles (2.49 km)
Ceiling: 500 feet AGL
Clouds: broken clouds at 500 feet AGL
Weather: BR  (mist)